sensor_id;sensor_type;location;lat;lon;timestamp;temperature;humidity
21502;DHT22;27639;48.674;9.242;2023-02-02T00:02:00;7.50;60.50
21502;DHT22;27639;48.674;9.242;2023-02-02T00:04:32;7.50;60.40
21502;DHT22;27639;48.674;9.242;2023-02-02T00:06:58;7.60;60.50
21502;DHT22;27639;48.674;9.242;2023-02-02T00:09:27;7.50;60.60
21502;DHT22;27639;48.674;9.242;2023-02-02T00:11:57;7.50;60.50
21502;DHT22;27639;48.674;9.242;2023-02-02T00:14:23;7.50;60.60
21502;DHT22;27639;48.674;9.242;2023-02-02T00:16:51;7.50;60.60
21502;DHT22;27639;48.674;9.242;2023-02-02T00:19:23;7.50;60.80
21502;DHT22;27639;48.674;9.242;2023-02-02T00:21:51;7.50;60.60
21502;DHT22;27639;48.674;9.242;2023-02-02T00:24:17;7.40;60.90
21502;DHT22;27639;48.674;9.242;2023-02-02T00:26:45;7.40;61.00
21502;DHT22;27639;48.674;9.242;2023-02-02T00:29:16;7.50;60.80
21502;DHT22;27639;48.674;9.242;2023-02-02T00:31:42;7.50;60.70
21502;DHT22;27639;48.674;9.242;2023-02-02T00:34:12;7.50;60.60
21502;DHT22;27639;48.674;9.242;2023-02-02T00:36:39;7.60;60.60
21502;DHT22;27639;48.674;9.242;2023-02-02T00:39:05;7.60;60.60
21502;DHT22;27639;48.674;9.242;2023-02-02T00:41:30;7.60;60.60
21502;DHT22;27639;48.674;9.242;2023-02-02T00:43:56;7.50;60.60
21502;DHT22;27639;48.674;9.242;2023-02-02T00:46:41;7.60;60.50
21502;DHT22;27639;48.674;9.242;2023-02-02T00:49:07;7.50;60.60
21502;DHT22;27639;48.674;9.242;2023-02-02T00:51:34;7.60;60.60
21502;DHT22;27639;48.674;9.242;2023-02-02T00:54:00;7.60;60.50
21502;DHT22;27639;48.674;9.242;2023-02-02T00:56:26;7.60;60.40
21502;DHT22;27639;48.674;9.242;2023-02-02T00:58:51;7.60;60.30
21502;DHT22;27639;48.674;9.242;2023-02-02T01:01:18;7.70;60.40
21502;DHT22;27639;48.674;9.242;2023-02-02T01:03:46;7.60;60.40
21502;DHT22;27639;48.674;9.242;2023-02-02T01:06:12;7.60;60.40
21502;DHT22;27639;48.674;9.242;2023-02-02T01:08:38;7.60;60.70
21502;DHT22;27639;48.674;9.242;2023-02-02T01:11:04;7.60;60.40
21502;DHT22;27639;48.674;9.242;2023-02-02T01:13:30;7.50;60.60
21502;DHT22;27639;48.674;9.242;2023-02-02T01:15:57;7.50;60.80
21502;DHT22;27639;48.674;9.242;2023-02-02T01:18:23;7.40;61.00
21502;DHT22;27639;48.674;9.242;2023-02-02T01:20:59;7.40;61.40
21502;DHT22;27639;48.674;9.242;2023-02-02T01:23:26;7.50;61.00
21502;DHT22;27639;48.674;9.242;2023-02-02T01:25:56;7.50;61.00
21502;DHT22;27639;48.674;9.242;2023-02-02T01:28:22;7.50;61.00
21502;DHT22;27639;48.674;9.242;2023-02-02T01:30:48;7.50;61.10
21502;DHT22;27639;48.674;9.242;2023-02-02T01:33:15;7.50;61.50
21502;DHT22;27639;48.674;9.242;2023-02-02T01:36:03;7.60;61.60
21502;DHT22;27639;48.674;9.242;2023-02-02T01:38:29;7.60;61.60
21502;DHT22;27639;48.674;9.242;2023-02-02T01:40:56;7.60;61.60
21502;DHT22;27639;48.674;9.242;2023-02-02T01:45:47;7.60;62.10
21502;DHT22;27639;48.674;9.242;2023-02-02T01:48:13;7.50;62.40
21502;DHT22;27639;48.674;9.242;2023-02-02T01:50:39;7.50;62.90
21502;DHT22;27639;48.674;9.242;2023-02-02T01:53:06;7.40;63.20
21502;DHT22;27639;48.674;9.242;2023-02-02T01:55:34;7.40;63.20
21502;DHT22;27639;48.674;9.242;2023-02-02T01:58:10;7.40;63.40
21502;DHT22;27639;48.674;9.242;2023-02-02T02:00:37;7.40;63.10
21502;DHT22;27639;48.674;9.242;2023-02-02T02:03:13;7.50;63.10
21502;DHT22;27639;48.674;9.242;2023-02-02T02:05:50;7.50;62.80
21502;DHT22;27639;48.674;9.242;2023-02-02T02:08:29;7.60;62.80
21502;DHT22;27639;48.674;9.242;2023-02-02T02:10:56;7.50;62.90
21502;DHT22;27639;48.674;9.242;2023-02-02T02:13:23;7.60;62.80
21502;DHT22;27639;48.674;9.242;2023-02-02T02:22:27;7.50;63.70
21502;DHT22;27639;48.674;9.242;2023-02-02T02:31:44;7.50;63.00
21502;DHT22;27639;48.674;9.242;2023-02-02T02:37:21;7.50;63.10
21502;DHT22;27639;48.674;9.242;2023-02-02T02:42:23;7.50;63.20
21502;DHT22;27639;48.674;9.242;2023-02-02T02:44:50;7.60;63.20
21502;DHT22;27639;48.674;9.242;2023-02-02T02:47:18;7.60;62.80
21502;DHT22;27639;48.674;9.242;2023-02-02T02:49:47;7.70;62.80
21502;DHT22;27639;48.674;9.242;2023-02-02T02:52:13;7.70;62.80
21502;DHT22;27639;48.674;9.242;2023-02-02T02:54:49;7.60;62.80
21502;DHT22;27639;48.674;9.242;2023-02-02T03:06:07;7.60;62.70
21502;DHT22;27639;48.674;9.242;2023-02-02T03:08:38;7.60;62.80
21502;DHT22;27639;48.674;9.242;2023-02-02T03:11:06;7.50;63.30
21502;DHT22;27639;48.674;9.242;2023-02-02T03:13:33;7.50;63.30
21502;DHT22;27639;48.674;9.242;2023-02-02T03:15:59;7.50;63.20
21502;DHT22;27639;48.674;9.242;2023-02-02T03:18:27;7.50;63.20
21502;DHT22;27639;48.674;9.242;2023-02-02T03:20:54;7.60;63.10
21502;DHT22;27639;48.674;9.242;2023-02-02T03:23:19;7.60;63.10
21502;DHT22;27639;48.674;9.242;2023-02-02T03:25:45;7.60;62.90
21502;DHT22;27639;48.674;9.242;2023-02-02T03:28:11;7.60;62.80
21502;DHT22;27639;48.674;9.242;2023-02-02T03:30:37;7.70;62.60
21502;DHT22;27639;48.674;9.242;2023-02-02T03:33:04;7.80;62.50
21502;DHT22;27639;48.674;9.242;2023-02-02T03:35:30;7.80;62.20
21502;DHT22;27639;48.674;9.242;2023-02-02T03:37:56;7.80;62.20
21502;DHT22;27639;48.674;9.242;2023-02-02T03:40:22;7.80;62.40
21502;DHT22;27639;48.674;9.242;2023-02-02T03:42:47;7.80;62.30
21502;DHT22;27639;48.674;9.242;2023-02-02T03:45:13;7.80;62.50
21502;DHT22;27639;48.674;9.242;2023-02-02T03:47:38;7.80;62.60
21502;DHT22;27639;48.674;9.242;2023-02-02T03:50:07;7.70;62.60
21502;DHT22;27639;48.674;9.242;2023-02-02T03:52:33;7.80;62.70
21502;DHT22;27639;48.674;9.242;2023-02-02T03:54:58;7.80;62.60
21502;DHT22;27639;48.674;9.242;2023-02-02T03:57:24;7.80;62.70
21502;DHT22;27639;48.674;9.242;2023-02-02T03:59:49;7.70;62.90
21502;DHT22;27639;48.674;9.242;2023-02-02T04:02:15;7.70;63.00
21502;DHT22;27639;48.674;9.242;2023-02-02T04:04:40;7.70;62.90
21502;DHT22;27639;48.674;9.242;2023-02-02T04:07:06;7.80;63.00
21502;DHT22;27639;48.674;9.242;2023-02-02T04:09:32;7.80;62.90
21502;DHT22;27639;48.674;9.242;2023-02-02T04:11:57;7.80;62.80
21502;DHT22;27639;48.674;9.242;2023-02-02T04:14:23;7.80;62.80
21502;DHT22;27639;48.674;9.242;2023-02-02T04:16:48;7.80;62.80
21502;DHT22;27639;48.674;9.242;2023-02-02T04:19:14;7.80;62.70
21502;DHT22;27639;48.674;9.242;2023-02-02T04:21:40;7.90;62.80
21502;DHT22;27639;48.674;9.242;2023-02-02T04:24:09;7.90;62.70
21502;DHT22;27639;48.674;9.242;2023-02-02T04:26:35;7.90;62.60
21502;DHT22;27639;48.674;9.242;2023-02-02T04:29:00;7.90;62.60
21502;DHT22;27639;48.674;9.242;2023-02-02T04:31:26;7.90;62.70
21502;DHT22;27639;48.674;9.242;2023-02-02T04:33:51;7.90;62.70
21502;DHT22;27639;48.674;9.242;2023-02-02T04:36:17;7.90;62.70
21502;DHT22;27639;48.674;9.242;2023-02-02T04:38:43;8.00;63.50
21502;DHT22;27639;48.674;9.242;2023-02-02T04:41:10;8.00;62.40
21502;DHT22;27639;48.674;9.242;2023-02-02T04:43:36;8.00;62.20
21502;DHT22;27639;48.674;9.242;2023-02-02T04:46:03;8.00;62.30
21502;DHT22;27639;48.674;9.242;2023-02-02T04:48:29;8.00;62.40
21502;DHT22;27639;48.674;9.242;2023-02-02T04:50:59;8.00;62.50
21502;DHT22;27639;48.674;9.242;2023-02-02T04:53:25;8.00;62.50
21502;DHT22;27639;48.674;9.242;2023-02-02T04:55:51;7.90;62.60
21502;DHT22;27639;48.674;9.242;2023-02-02T04:58:16;8.00;62.70
21502;DHT22;27639;48.674;9.242;2023-02-02T05:00:42;7.90;62.80
21502;DHT22;27639;48.674;9.242;2023-02-02T05:03:07;7.90;62.80
21502;DHT22;27639;48.674;9.242;2023-02-02T05:05:33;7.90;62.70
21502;DHT22;27639;48.674;9.242;2023-02-02T05:07:58;7.90;62.80
21502;DHT22;27639;48.674;9.242;2023-02-02T05:10:24;8.00;63.00
21502;DHT22;27639;48.674;9.242;2023-02-02T05:12:52;8.00;63.00
21502;DHT22;27639;48.674;9.242;2023-02-02T05:15:17;7.90;63.00
21502;DHT22;27639;48.674;9.242;2023-02-02T05:17:43;8.00;63.00
21502;DHT22;27639;48.674;9.242;2023-02-02T05:20:09;7.90;62.90
21502;DHT22;27639;48.674;9.242;2023-02-02T05:22:35;7.90;63.20
21502;DHT22;27639;48.674;9.242;2023-02-02T05:25:00;7.90;63.30
21502;DHT22;27639;48.674;9.242;2023-02-02T05:27:26;7.90;63.30
21502;DHT22;27639;48.674;9.242;2023-02-02T05:29:52;7.90;63.20
21502;DHT22;27639;48.674;9.242;2023-02-02T05:32:17;7.90;63.30
21502;DHT22;27639;48.674;9.242;2023-02-02T05:34:43;8.00;63.20
21502;DHT22;27639;48.674;9.242;2023-02-02T05:37:08;8.00;63.20
21502;DHT22;27639;48.674;9.242;2023-02-02T05:39:34;8.00;63.00
21502;DHT22;27639;48.674;9.242;2023-02-02T05:41:59;8.10;62.90
21502;DHT22;27639;48.674;9.242;2023-02-02T05:44:25;8.00;63.00
21502;DHT22;27639;48.674;9.242;2023-02-02T05:46:50;8.00;63.00
21502;DHT22;27639;48.674;9.242;2023-02-02T05:49:16;8.10;62.90
21502;DHT22;27639;48.674;9.242;2023-02-02T05:51:51;8.10;62.90
21502;DHT22;27639;48.674;9.242;2023-02-02T05:54:17;8.00;62.90
21502;DHT22;27639;48.674;9.242;2023-02-02T05:56:49;8.10;63.10
21502;DHT22;27639;48.674;9.242;2023-02-02T05:59:16;8.10;62.90
21502;DHT22;27639;48.674;9.242;2023-02-02T06:01:42;8.00;63.00
21502;DHT22;27639;48.674;9.242;2023-02-02T06:04:08;8.00;63.20
21502;DHT22;27639;48.674;9.242;2023-02-02T06:06:33;7.90;63.20
21502;DHT22;27639;48.674;9.242;2023-02-02T06:09:00;8.00;63.40
21502;DHT22;27639;48.674;9.242;2023-02-02T06:11:26;8.00;63.10
21502;DHT22;27639;48.674;9.242;2023-02-02T06:13:51;8.10;62.80
21502;DHT22;27639;48.674;9.242;2023-02-02T06:16:17;8.10;63.00
21502;DHT22;27639;48.674;9.242;2023-02-02T06:18:42;8.00;62.90
21502;DHT22;27639;48.674;9.242;2023-02-02T06:21:08;8.10;62.90
21502;DHT22;27639;48.674;9.242;2023-02-02T06:23:34;8.00;63.00
21502;DHT22;27639;48.674;9.242;2023-02-02T06:26:01;8.00;63.00
21502;DHT22;27639;48.674;9.242;2023-02-02T06:28:29;8.00;63.20
21502;DHT22;27639;48.674;9.242;2023-02-02T06:30:54;8.00;63.50
21502;DHT22;27639;48.674;9.242;2023-02-02T06:33:20;7.90;63.50
21502;DHT22;27639;48.674;9.242;2023-02-02T06:35:45;7.90;63.60
21502;DHT22;27639;48.674;9.242;2023-02-02T06:38:11;7.90;63.80
21502;DHT22;27639;48.674;9.242;2023-02-02T06:40:37;7.80;63.80
21502;DHT22;27639;48.674;9.242;2023-02-02T06:43:03;7.90;63.80
21502;DHT22;27639;48.674;9.242;2023-02-02T06:45:29;7.80;64.00
21502;DHT22;27639;48.674;9.242;2023-02-02T06:47:58;7.80;64.20
21502;DHT22;27639;48.674;9.242;2023-02-02T06:50:28;7.80;64.10
21502;DHT22;27639;48.674;9.242;2023-02-02T06:52:54;7.90;64.00
21502;DHT22;27639;48.674;9.242;2023-02-02T06:55:20;7.80;64.20
21502;DHT22;27639;48.674;9.242;2023-02-02T06:57:46;7.80;64.20
21502;DHT22;27639;48.674;9.242;2023-02-02T07:00:12;7.90;64.20
21502;DHT22;27639;48.674;9.242;2023-02-02T07:02:38;7.90;64.40
21502;DHT22;27639;48.674;9.242;2023-02-02T07:05:04;7.80;64.30
21502;DHT22;27639;48.674;9.242;2023-02-02T07:07:33;7.90;64.40
21502;DHT22;27639;48.674;9.242;2023-02-02T07:09:59;7.80;64.40
21502;DHT22;27639;48.674;9.242;2023-02-02T07:12:25;7.90;64.30
21502;DHT22;27639;48.674;9.242;2023-02-02T07:14:51;7.90;64.10
21502;DHT22;27639;48.674;9.242;2023-02-02T07:17:17;8.00;64.40
21502;DHT22;27639;48.674;9.242;2023-02-02T07:19:43;7.90;64.30
21502;DHT22;27639;48.674;9.242;2023-02-02T07:22:08;7.90;64.80
21502;DHT22;27639;48.674;9.242;2023-02-02T07:24:34;7.90;64.90
21502;DHT22;27639;48.674;9.242;2023-02-02T07:26:59;7.80;64.80
21502;DHT22;27639;48.674;9.242;2023-02-02T07:29:25;7.90;64.90
21502;DHT22;27639;48.674;9.242;2023-02-02T07:31:51;8.00;65.00
21502;DHT22;27639;48.674;9.242;2023-02-02T07:34:16;7.90;64.90
21502;DHT22;27639;48.674;9.242;2023-02-02T07:36:42;7.90;64.90
21502;DHT22;27639;48.674;9.242;2023-02-02T07:39:08;7.90;64.90
21502;DHT22;27639;48.674;9.242;2023-02-02T07:41:35;7.90;64.90
21502;DHT22;27639;48.674;9.242;2023-02-02T07:44:01;7.90;64.90
21502;DHT22;27639;48.674;9.242;2023-02-02T07:46:27;7.90;64.90
21502;DHT22;27639;48.674;9.242;2023-02-02T07:48:53;7.90;64.90
21502;DHT22;27639;48.674;9.242;2023-02-02T07:51:23;8.00;65.00
21502;DHT22;27639;48.674;9.242;2023-02-02T07:53:51;8.00;65.00
21502;DHT22;27639;48.674;9.242;2023-02-02T07:56:21;8.00;65.00
21502;DHT22;27639;48.674;9.242;2023-02-02T07:58:47;7.90;64.90
21502;DHT22;27639;48.674;9.242;2023-02-02T08:01:15;7.90;64.90
21502;DHT22;27639;48.674;9.242;2023-02-02T08:03:42;7.90;66.00
21502;DHT22;27639;48.674;9.242;2023-02-02T08:06:16;7.90;64.90
21502;DHT22;27639;48.674;9.242;2023-02-02T08:08:43;8.00;65.00
21502;DHT22;27639;48.674;9.242;2023-02-02T08:11:11;8.00;65.00
21502;DHT22;27639;48.674;9.242;2023-02-02T08:13:37;8.00;65.00
21502;DHT22;27639;48.674;9.242;2023-02-02T08:16:04;8.00;65.00
21502;DHT22;27639;48.674;9.242;2023-02-02T08:18:30;8.00;65.00
21502;DHT22;27639;48.674;9.242;2023-02-02T08:20:59;8.10;65.10
21502;DHT22;27639;48.674;9.242;2023-02-02T08:23:25;8.10;65.10
21502;DHT22;27639;48.674;9.242;2023-02-02T08:25:51;8.20;65.20
21502;DHT22;27639;48.674;9.242;2023-02-02T08:28:17;8.10;65.10
21502;DHT22;27639;48.674;9.242;2023-02-02T08:30:43;8.10;65.10
21502;DHT22;27639;48.674;9.242;2023-02-02T08:33:09;8.20;64.80
21502;DHT22;27639;48.674;9.242;2023-02-02T08:35:42;8.20;64.80
21502;DHT22;27639;48.674;9.242;2023-02-02T08:38:08;8.30;64.80
21502;DHT22;27639;48.674;9.242;2023-02-02T08:40:34;8.30;64.60
21502;DHT22;27639;48.674;9.242;2023-02-02T08:43:00;8.40;64.40
21502;DHT22;27639;48.674;9.242;2023-02-02T08:45:25;8.40;64.30
21502;DHT22;27639;48.674;9.242;2023-02-02T08:47:52;8.40;64.40
21502;DHT22;27639;48.674;9.242;2023-02-02T08:50:18;8.40;64.50
21502;DHT22;27639;48.674;9.242;2023-02-02T08:52:43;8.50;64.40
21502;DHT22;27639;48.674;9.242;2023-02-02T08:55:09;8.60;64.30
21502;DHT22;27639;48.674;9.242;2023-02-02T08:57:35;8.60;64.00
21502;DHT22;27639;48.674;9.242;2023-02-02T09:00:02;8.60;64.00
21502;DHT22;27639;48.674;9.242;2023-02-02T09:02:28;8.60;63.80
21502;DHT22;27639;48.674;9.242;2023-02-02T09:04:54;8.50;63.80
21502;DHT22;27639;48.674;9.242;2023-02-02T09:07:19;8.50;64.70
21502;DHT22;27639;48.674;9.242;2023-02-02T09:09:45;8.60;63.90
21502;DHT22;27639;48.674;9.242;2023-02-02T09:12:10;8.70;63.60
21502;DHT22;27639;48.674;9.242;2023-02-02T09:14:36;8.70;63.50
21502;DHT22;27639;48.674;9.242;2023-02-02T09:17:02;8.70;63.50
21502;DHT22;27639;48.674;9.242;2023-02-02T09:19:27;8.60;63.60
21502;DHT22;27639;48.674;9.242;2023-02-02T09:21:53;8.60;63.60
21502;DHT22;27639;48.674;9.242;2023-02-02T09:24:18;8.60;63.70
21502;DHT22;27639;48.674;9.242;2023-02-02T09:26:44;8.70;63.60
21502;DHT22;27639;48.674;9.242;2023-02-02T09:29:15;8.70;63.50
21502;DHT22;27639;48.674;9.242;2023-02-02T09:31:42;8.70;63.60
21502;DHT22;27639;48.674;9.242;2023-02-02T09:34:10;8.80;63.50
21502;DHT22;27639;48.674;9.242;2023-02-02T09:36:37;8.80;63.60
21502;DHT22;27639;48.674;9.242;2023-02-02T09:39:04;8.80;63.70
21502;DHT22;27639;48.674;9.242;2023-02-02T09:44:21;8.90;63.70
21502;DHT22;27639;48.674;9.242;2023-02-02T09:52:06;8.90;63.60
21502;DHT22;27639;48.674;9.242;2023-02-02T09:54:40;8.90;63.60
21502;DHT22;27639;48.674;9.242;2023-02-02T09:57:21;8.80;63.60
21502;DHT22;27639;48.674;9.242;2023-02-02T09:59:50;8.90;63.40
21502;DHT22;27639;48.674;9.242;2023-02-02T10:02:27;8.90;63.60
21502;DHT22;27639;48.674;9.242;2023-02-02T10:05:04;8.90;63.60
21502;DHT22;27639;48.674;9.242;2023-02-02T10:07:38;8.90;63.80
21502;DHT22;27639;48.674;9.242;2023-02-02T10:10:13;8.90;63.80
21502;DHT22;27639;48.674;9.242;2023-02-02T10:12:55;8.90;63.90
21502;DHT22;27639;48.674;9.242;2023-02-02T10:15:35;8.90;63.80
21502;DHT22;27639;48.674;9.242;2023-02-02T10:20:37;8.80;64.40
21502;DHT22;27639;48.674;9.242;2023-02-02T10:23:24;8.80;64.20
21502;DHT22;27639;48.674;9.242;2023-02-02T10:26:02;8.80;64.20
21502;DHT22;27639;48.674;9.242;2023-02-02T10:28:40;8.70;64.30
21502;DHT22;27639;48.674;9.242;2023-02-02T10:31:15;8.70;64.60
21502;DHT22;27639;48.674;9.242;2023-02-02T10:33:43;8.70;64.80
21502;DHT22;27639;48.674;9.242;2023-02-02T10:39:17;8.70;65.00
21502;DHT22;27639;48.674;9.242;2023-02-02T10:45:00;8.80;65.10
21502;DHT22;27639;48.674;9.242;2023-02-02T10:47:30;8.80;65.40
21502;DHT22;27639;48.674;9.242;2023-02-02T10:50:17;8.80;65.40
21502;DHT22;27639;48.674;9.242;2023-02-02T10:52:55;8.80;65.30
21502;DHT22;27639;48.674;9.242;2023-02-02T10:55:38;8.80;65.40
21502;DHT22;27639;48.674;9.242;2023-02-02T11:00:55;8.80;65.80
21502;DHT22;27639;48.674;9.242;2023-02-02T11:03:27;8.80;65.70
21502;DHT22;27639;48.674;9.242;2023-02-02T11:05:53;8.80;65.80
21502;DHT22;27639;48.674;9.242;2023-02-02T11:08:43;8.80;65.60
21502;DHT22;27639;48.674;9.242;2023-02-02T11:16:42;8.70;65.70
21502;DHT22;27639;48.674;9.242;2023-02-02T11:21:51;8.70;65.70
21502;DHT22;27639;48.674;9.242;2023-02-02T11:24:28;8.70;65.70
21502;DHT22;27639;48.674;9.242;2023-02-02T11:27:16;8.70;65.70
21502;DHT22;27639;48.674;9.242;2023-02-02T11:32:51;8.80;65.80
21502;DHT22;27639;48.674;9.242;2023-02-02T11:35:24;8.80;65.80
21502;DHT22;27639;48.674;9.242;2023-02-02T11:38:09;8.80;65.80
21502;DHT22;27639;48.674;9.242;2023-02-02T11:40:43;8.70;65.70
21502;DHT22;27639;48.674;9.242;2023-02-02T11:43:29;8.80;65.80
21502;DHT22;27639;48.674;9.242;2023-02-02T11:48:28;8.80;66.20
21502;DHT22;27639;48.674;9.242;2023-02-02T11:50:56;8.90;66.50
21502;DHT22;27639;48.674;9.242;2023-02-02T11:53:33;8.90;65.90
21502;DHT22;27639;48.674;9.242;2023-02-02T11:56:08;8.90;65.90
21502;DHT22;27639;48.674;9.242;2023-02-02T11:58:51;8.80;66.60
21502;DHT22;27639;48.674;9.242;2023-02-02T12:01:37;8.80;66.20
21502;DHT22;27639;48.674;9.242;2023-02-02T12:06:42;8.80;66.60
21502;DHT22;27639;48.674;9.242;2023-02-02T12:09:16;8.80;66.80
21502;DHT22;27639;48.674;9.242;2023-02-02T12:14:28;8.70;67.40
21502;DHT22;27639;48.674;9.242;2023-02-02T12:17:20;8.80;67.40
21502;DHT22;27639;48.674;9.242;2023-02-02T12:33:26;8.90;67.70
21502;DHT22;27639;48.674;9.242;2023-02-02T12:36:29;8.90;67.40
21502;DHT22;27639;48.674;9.242;2023-02-02T12:39:23;9.00;67.50
21502;DHT22;27639;48.674;9.242;2023-02-02T13:12:18;9.00;68.10
21502;DHT22;27639;48.674;9.242;2023-02-02T13:15:05;9.00;67.20
21502;DHT22;27639;48.674;9.242;2023-02-02T13:17:39;9.00;67.00
21502;DHT22;27639;48.674;9.242;2023-02-02T13:20:41;9.10;67.10
21502;DHT22;27639;48.674;9.242;2023-02-02T13:23:27;9.00;66.30
21502;DHT22;27639;48.674;9.242;2023-02-02T13:26:10;8.90;66.80
21502;DHT22;27639;48.674;9.242;2023-02-02T13:31:44;8.80;67.10
21502;DHT22;27639;48.674;9.242;2023-02-02T13:48:14;8.80;66.50
21502;DHT22;27639;48.674;9.242;2023-02-02T13:51:09;8.90;66.20
21502;DHT22;27639;48.674;9.242;2023-02-02T13:59:16;8.80;66.50
21502;DHT22;27639;48.674;9.242;2023-02-02T14:01:48;8.80;66.80
21502;DHT22;27639;48.674;9.242;2023-02-02T14:04:23;8.90;66.90
21502;DHT22;27639;48.674;9.242;2023-02-02T14:07:04;9.00;66.80
21502;DHT22;27639;48.674;9.242;2023-02-02T14:09:35;9.00;66.00
21502;DHT22;27639;48.674;9.242;2023-02-02T14:12:04;9.00;66.20
21502;DHT22;27639;48.674;9.242;2023-02-02T14:14:32;9.00;66.00
21502;DHT22;27639;48.674;9.242;2023-02-02T14:17:48;9.10;66.20
21502;DHT22;27639;48.674;9.242;2023-02-02T14:19:57;9.10;66.10
21502;DHT22;27639;48.674;9.242;2023-02-02T14:22:39;9.10;66.10
21502;DHT22;27639;48.674;9.242;2023-02-02T14:30:28;9.00;66.00
21502;DHT22;27639;48.674;9.242;2023-02-02T14:33:17;9.10;66.10
21502;DHT22;27639;48.674;9.242;2023-02-02T14:38:17;9.20;66.20
21502;DHT22;27639;48.674;9.242;2023-02-02T14:40:55;9.20;65.80
21502;DHT22;27639;48.674;9.242;2023-02-02T14:43:47;9.20;65.60
21502;DHT22;27639;48.674;9.242;2023-02-02T14:46:22;9.20;65.10
21502;DHT22;27639;48.674;9.242;2023-02-02T14:49:09;9.20;65.40
21502;DHT22;27639;48.674;9.242;2023-02-02T14:51:56;9.20;65.00
21502;DHT22;27639;48.674;9.242;2023-02-02T14:54:33;9.20;65.00
21502;DHT22;27639;48.674;9.242;2023-02-02T14:57:03;9.30;65.00
21502;DHT22;27639;48.674;9.242;2023-02-02T14:59:34;9.40;65.00
21502;DHT22;27639;48.674;9.242;2023-02-02T15:02:14;9.30;64.60
21502;DHT22;27639;48.674;9.242;2023-02-02T15:04:41;9.40;64.40
21502;DHT22;27639;48.674;9.242;2023-02-02T15:07:36;9.40;64.40
21502;DHT22;27639;48.674;9.242;2023-02-02T15:10:02;9.40;63.80
21502;DHT22;27639;48.674;9.242;2023-02-02T15:17:50;9.40;63.60
21502;DHT22;27639;48.674;9.242;2023-02-02T15:20:23;9.50;63.70
21502;DHT22;27639;48.674;9.242;2023-02-02T15:25:48;9.40;64.10
21502;DHT22;27639;48.674;9.242;2023-02-02T15:31:35;9.40;63.20
21502;DHT22;27639;48.674;9.242;2023-02-02T15:36:41;9.40;63.00
21502;DHT22;27639;48.674;9.242;2023-02-02T15:41:51;9.40;62.80
21502;DHT22;27639;48.674;9.242;2023-02-02T15:44:37;9.30;62.50
21502;DHT22;27639;48.674;9.242;2023-02-02T15:47:05;9.30;62.70
21502;DHT22;27639;48.674;9.242;2023-02-02T15:49:33;9.30;62.50
21502;DHT22;27639;48.674;9.242;2023-02-02T15:52:12;9.40;62.50
21502;DHT22;27639;48.674;9.242;2023-02-02T15:54:51;9.30;62.40
21502;DHT22;27639;48.674;9.242;2023-02-02T15:57:35;9.30;62.40
21502;DHT22;27639;48.674;9.242;2023-02-02T16:02:51;9.30;62.20
21502;DHT22;27639;48.674;9.242;2023-02-02T16:05:24;9.30;62.50
21502;DHT22;27639;48.674;9.242;2023-02-02T16:07:51;9.30;62.40
21502;DHT22;27639;48.674;9.242;2023-02-02T16:10:18;9.30;62.20
21502;DHT22;27639;48.674;9.242;2023-02-02T16:12:45;9.30;62.30
21502;DHT22;27639;48.674;9.242;2023-02-02T16:15:22;9.40;62.30
21502;DHT22;27639;48.674;9.242;2023-02-02T16:18:00;9.40;62.00
21502;DHT22;27639;48.674;9.242;2023-02-02T16:20:27;9.30;62.00
21502;DHT22;27639;48.674;9.242;2023-02-02T16:22:55;9.30;62.20
21502;DHT22;27639;48.674;9.242;2023-02-02T16:25:24;9.30;62.20
21502;DHT22;27639;48.674;9.242;2023-02-02T16:27:50;9.30;62.20
21502;DHT22;27639;48.674;9.242;2023-02-02T16:30:31;9.30;62.20
21502;DHT22;27639;48.674;9.242;2023-02-02T16:32:57;9.30;61.90
21502;DHT22;27639;48.674;9.242;2023-02-02T16:38:32;9.20;61.90
21502;DHT22;27639;48.674;9.242;2023-02-02T16:41:12;9.30;62.10
21502;DHT22;27639;48.674;9.242;2023-02-02T16:43:41;9.20;62.40
21502;DHT22;27639;48.674;9.242;2023-02-02T16:46:12;9.20;62.40
21502;DHT22;27639;48.674;9.242;2023-02-02T16:53:44;9.30;62.30
21502;DHT22;27639;48.674;9.242;2023-02-02T16:56:25;9.30;62.40
21502;DHT22;27639;48.674;9.242;2023-02-02T16:58:52;9.30;62.10
21502;DHT22;27639;48.674;9.242;2023-02-02T17:01:37;9.30;62.30
21502;DHT22;27639;48.674;9.242;2023-02-02T17:04:05;9.30;62.10
21502;DHT22;27639;48.674;9.242;2023-02-02T17:06:32;9.30;62.30
21502;DHT22;27639;48.674;9.242;2023-02-02T17:09:31;9.30;62.20
21502;DHT22;27639;48.674;9.242;2023-02-02T17:12:04;9.20;62.30
21502;DHT22;27639;48.674;9.242;2023-02-02T17:14:36;9.20;62.40
21502;DHT22;27639;48.674;9.242;2023-02-02T17:17:03;9.30;62.40
21502;DHT22;27639;48.674;9.242;2023-02-02T17:19:30;9.30;62.20
21502;DHT22;27639;48.674;9.242;2023-02-02T17:21:58;9.30;62.00
21502;DHT22;27639;48.674;9.242;2023-02-02T17:24:25;9.30;62.10
21502;DHT22;27639;48.674;9.242;2023-02-02T17:26:51;9.30;62.20
21502;DHT22;27639;48.674;9.242;2023-02-02T17:29:17;9.30;62.70
21502;DHT22;27639;48.674;9.242;2023-02-02T17:31:44;9.40;62.00
21502;DHT22;27639;48.674;9.242;2023-02-02T17:34:13;9.40;62.00
21502;DHT22;27639;48.674;9.242;2023-02-02T17:36:39;9.40;61.90
21502;DHT22;27639;48.674;9.242;2023-02-02T17:39:05;9.40;61.90
21502;DHT22;27639;48.674;9.242;2023-02-02T17:41:31;9.40;61.80
21502;DHT22;27639;48.674;9.242;2023-02-02T17:43:57;9.40;61.90
21502;DHT22;27639;48.674;9.242;2023-02-02T17:46:23;9.40;61.80
21502;DHT22;27639;48.674;9.242;2023-02-02T17:48:49;9.40;61.70
21502;DHT22;27639;48.674;9.242;2023-02-02T17:51:15;9.50;61.60
21502;DHT22;27639;48.674;9.242;2023-02-02T17:53:42;9.40;61.40
21502;DHT22;27639;48.674;9.242;2023-02-02T17:56:08;9.40;61.20
21502;DHT22;27639;48.674;9.242;2023-02-02T17:58:33;9.40;61.20
21502;DHT22;27639;48.674;9.242;2023-02-02T18:00:59;9.40;61.00
21502;DHT22;27639;48.674;9.242;2023-02-02T18:03:33;9.40;60.90
21502;DHT22;27639;48.674;9.242;2023-02-02T18:06:00;9.40;60.90
21502;DHT22;27639;48.674;9.242;2023-02-02T18:08:30;9.40;60.90
21502;DHT22;27639;48.674;9.242;2023-02-02T18:10:57;9.40;60.60
21502;DHT22;27639;48.674;9.242;2023-02-02T18:13:26;9.30;60.50
21502;DHT22;27639;48.674;9.242;2023-02-02T18:15:52;9.30;61.30
21502;DHT22;27639;48.674;9.242;2023-02-02T18:18:18;9.30;60.30
21502;DHT22;27639;48.674;9.242;2023-02-02T18:20:45;9.40;60.30
21502;DHT22;27639;48.674;9.242;2023-02-02T18:23:11;9.40;60.30
21502;DHT22;27639;48.674;9.242;2023-02-02T18:25:37;9.30;60.20
21502;DHT22;27639;48.674;9.242;2023-02-02T18:28:07;9.30;60.20
21502;DHT22;27639;48.674;9.242;2023-02-02T18:30:33;9.30;60.20
21502;DHT22;27639;48.674;9.242;2023-02-02T18:32:58;9.40;60.20
21502;DHT22;27639;48.674;9.242;2023-02-02T18:35:24;9.50;60.10
21502;DHT22;27639;48.674;9.242;2023-02-02T18:37:50;9.50;60.00
21502;DHT22;27639;48.674;9.242;2023-02-02T18:40:16;9.50;60.70
21502;DHT22;27639;48.674;9.242;2023-02-02T18:42:42;9.50;60.10
21502;DHT22;27639;48.674;9.242;2023-02-02T18:45:08;9.50;60.10
21502;DHT22;27639;48.674;9.242;2023-02-02T18:47:33;9.40;60.00
21502;DHT22;27639;48.674;9.242;2023-02-02T18:49:59;9.50;60.10
21502;DHT22;27639;48.674;9.242;2023-02-02T18:52:24;9.40;60.20